sensor_id;sensor_type;location;lat;lon;timestamp;temperature;humidity
13880;DHT22;7010;48.200;16.332;2022-12-07T00:01:34;5.10;99.90
13880;DHT22;7010;48.200;16.332;2022-12-07T00:04:04;5.00;99.90
13880;DHT22;7010;48.200;16.332;2022-12-07T00:06:34;5.10;99.90
13880;DHT22;7010;48.200;16.332;2022-12-07T00:09:06;5.10;99.90
13880;DHT22;7010;48.200;16.332;2022-12-07T00:11:35;5.10;99.90
13880;DHT22;7010;48.200;16.332;2022-12-07T00:14:06;5.10;99.90
13880;DHT22;7010;48.200;16.332;2022-12-07T00:16:35;5.00;99.90
13880;DHT22;7010;48.200;16.332;2022-12-07T00:19:04;5.00;99.90
13880;DHT22;7010;48.200;16.332;2022-12-07T00:21:33;5.00;99.90
13880;DHT22;7010;48.200;16.332;2022-12-07T00:24:03;5.00;99.90
13880;DHT22;7010;48.200;16.332;2022-12-07T00:26:34;5.00;99.90
13880;DHT22;7010;48.200;16.332;2022-12-07T00:29:05;5.10;99.90
13880;DHT22;7010;48.200;16.332;2022-12-07T00:31:35;5.10;99.90
13880;DHT22;7010;48.200;16.332;2022-12-07T00:34:06;5.10;99.90
13880;DHT22;7010;48.200;16.332;2022-12-07T00:36:35;5.10;99.90
13880;DHT22;7010;48.200;16.332;2022-12-07T00:39:03;5.10;99.90
13880;DHT22;7010;48.200;16.332;2022-12-07T00:41:33;5.10;99.90
13880;DHT22;7010;48.200;16.332;2022-12-07T00:44:02;5.10;99.90
13880;DHT22;7010;48.200;16.332;2022-12-07T00:46:30;5.10;99.90
13880;DHT22;7010;48.200;16.332;2022-12-07T00:48:59;5.10;99.90
13880;DHT22;7010;48.200;16.332;2022-12-07T00:51:27;5.10;99.90
13880;DHT22;7010;48.200;16.332;2022-12-07T00:53:55;5.10;99.90
13880;DHT22;7010;48.200;16.332;2022-12-07T00:56:25;5.10;99.90
13880;DHT22;7010;48.200;16.332;2022-12-07T00:58:57;5.10;99.90
13880;DHT22;7010;48.200;16.332;2022-12-07T01:01:28;5.00;99.90
13880;DHT22;7010;48.200;16.332;2022-12-07T01:03:57;5.10;99.90
13880;DHT22;7010;48.200;16.332;2022-12-07T01:06:28;5.00;99.90
13880;DHT22;7010;48.200;16.332;2022-12-07T01:08:57;5.00;99.90
13880;DHT22;7010;48.200;16.332;2022-12-07T01:11:28;5.00;99.90
13880;DHT22;7010;48.200;16.332;2022-12-07T01:13:59;5.00;99.90
13880;DHT22;7010;48.200;16.332;2022-12-07T01:16:29;5.00;99.90
13880;DHT22;7010;48.200;16.332;2022-12-07T01:18:59;5.00;99.90
13880;DHT22;7010;48.200;16.332;2022-12-07T01:21:29;5.00;99.90
13880;DHT22;7010;48.200;16.332;2022-12-07T01:23:59;4.90;99.90
13880;DHT22;7010;48.200;16.332;2022-12-07T01:26:28;4.90;99.90
13880;DHT22;7010;48.200;16.332;2022-12-07T01:28:57;4.90;99.90
13880;DHT22;7010;48.200;16.332;2022-12-07T01:31:28;4.90;99.90
13880;DHT22;7010;48.200;16.332;2022-12-07T01:33:58;5.00;99.90
13880;DHT22;7010;48.200;16.332;2022-12-07T01:36:28;5.00;99.90
13880;DHT22;7010;48.200;16.332;2022-12-07T01:38:59;4.90;99.90
13880;DHT22;7010;48.200;16.332;2022-12-07T01:41:30;4.90;99.90
13880;DHT22;7010;48.200;16.332;2022-12-07T01:44:15;5.00;99.90
13880;DHT22;7010;48.200;16.332;2022-12-07T01:46:46;5.00;99.90
13880;DHT22;7010;48.200;16.332;2022-12-07T01:49:20;5.00;99.90
13880;DHT22;7010;48.200;16.332;2022-12-07T01:51:52;4.90;99.90
13880;DHT22;7010;48.200;16.332;2022-12-07T01:54:22;5.00;99.90
13880;DHT22;7010;48.200;16.332;2022-12-07T01:56:52;4.90;99.90
13880;DHT22;7010;48.200;16.332;2022-12-07T01:59:25;4.90;99.90
13880;DHT22;7010;48.200;16.332;2022-12-07T02:01:55;4.90;99.90
13880;DHT22;7010;48.200;16.332;2022-12-07T02:04:24;4.90;99.90
13880;DHT22;7010;48.200;16.332;2022-12-07T02:06:53;4.90;99.90
13880;DHT22;7010;48.200;16.332;2022-12-07T02:09:22;4.90;99.90
13880;DHT22;7010;48.200;16.332;2022-12-07T02:11:51;4.90;99.90
13880;DHT22;7010;48.200;16.332;2022-12-07T02:14:21;4.90;99.90
13880;DHT22;7010;48.200;16.332;2022-12-07T02:17:06;4.90;99.90
13880;DHT22;7010;48.200;16.332;2022-12-07T02:20:17;4.90;99.90
13880;DHT22;7010;48.200;16.332;2022-12-07T02:23:00;4.90;99.90
13880;DHT22;7010;48.200;16.332;2022-12-07T02:28:27;4.80;99.90
13880;DHT22;7010;48.200;16.332;2022-12-07T02:31:01;4.90;99.90
13880;DHT22;7010;48.200;16.332;2022-12-07T02:33:35;4.90;99.90
13880;DHT22;7010;48.200;16.332;2022-12-07T02:36:07;4.90;99.90
13880;DHT22;7010;48.200;16.332;2022-12-07T02:38:43;4.90;99.90
13880;DHT22;7010;48.200;16.332;2022-12-07T02:41:15;4.80;99.90
13880;DHT22;7010;48.200;16.332;2022-12-07T02:43:48;4.90;99.90
13880;DHT22;7010;48.200;16.332;2022-12-07T02:46:22;4.90;99.90
13880;DHT22;7010;48.200;16.332;2022-12-07T02:48:53;4.90;99.90
13880;DHT22;7010;48.200;16.332;2022-12-07T02:51:22;4.90;99.90
13880;DHT22;7010;48.200;16.332;2022-12-07T02:53:51;4.80;99.90
13880;DHT22;7010;48.200;16.332;2022-12-07T02:56:25;4.90;99.90
13880;DHT22;7010;48.200;16.332;2022-12-07T02:59:05;4.90;99.90
13880;DHT22;7010;48.200;16.332;2022-12-07T03:01:44;4.80;99.90
13880;DHT22;7010;48.200;16.332;2022-12-07T03:04:22;4.80;99.90
13880;DHT22;7010;48.200;16.332;2022-12-07T03:06:58;4.90;99.90
13880;DHT22;7010;48.200;16.332;2022-12-07T03:09:33;4.80;99.90
13880;DHT22;7010;48.200;16.332;2022-12-07T03:12:09;4.80;99.90
13880;DHT22;7010;48.200;16.332;2022-12-07T03:14:41;4.80;99.90
13880;DHT22;7010;48.200;16.332;2022-12-07T03:17:18;4.90;99.90
13880;DHT22;7010;48.200;16.332;2022-12-07T03:19:50;4.80;99.90
13880;DHT22;7010;48.200;16.332;2022-12-07T03:22:21;4.80;99.90
13880;DHT22;7010;48.200;16.332;2022-12-07T03:24:54;4.80;99.90
13880;DHT22;7010;48.200;16.332;2022-12-07T03:27:26;4.80;99.90
13880;DHT22;7010;48.200;16.332;2022-12-07T03:30:00;4.80;99.90
13880;DHT22;7010;48.200;16.332;2022-12-07T03:32:35;4.80;99.90
13880;DHT22;7010;48.200;16.332;2022-12-07T03:35:09;4.80;99.90
13880;DHT22;7010;48.200;16.332;2022-12-07T03:37:42;4.80;99.90
13880;DHT22;7010;48.200;16.332;2022-12-07T03:40:15;4.80;99.90
13880;DHT22;7010;48.200;16.332;2022-12-07T03:42:46;4.80;99.90
13880;DHT22;7010;48.200;16.332;2022-12-07T03:45:16;4.80;99.90
13880;DHT22;7010;48.200;16.332;2022-12-07T03:47:50;4.80;99.90
13880;DHT22;7010;48.200;16.332;2022-12-07T03:50:27;4.80;99.90
13880;DHT22;7010;48.200;16.332;2022-12-07T03:52:58;4.80;99.90
13880;DHT22;7010;48.200;16.332;2022-12-07T03:55:32;4.80;99.90
13880;DHT22;7010;48.200;16.332;2022-12-07T03:58:05;4.80;99.90
13880;DHT22;7010;48.200;16.332;2022-12-07T04:00:34;4.80;99.90
13880;DHT22;7010;48.200;16.332;2022-12-07T04:03:04;4.80;99.90
13880;DHT22;7010;48.200;16.332;2022-12-07T04:05:32;4.80;99.90
13880;DHT22;7010;48.200;16.332;2022-12-07T04:08:00;4.80;99.90
13880;DHT22;7010;48.200;16.332;2022-12-07T04:10:29;4.80;99.90
13880;DHT22;7010;48.200;16.332;2022-12-07T04:12:57;4.80;99.90
13880;DHT22;7010;48.200;16.332;2022-12-07T04:15:25;4.80;99.90
13880;DHT22;7010;48.200;16.332;2022-12-07T04:17:54;4.80;99.90
13880;DHT22;7010;48.200;16.332;2022-12-07T04:20:24;4.80;99.90
13880;DHT22;7010;48.200;16.332;2022-12-07T04:22:52;4.70;99.90
13880;DHT22;7010;48.200;16.332;2022-12-07T04:25:20;4.80;99.90
13880;DHT22;7010;48.200;16.332;2022-12-07T04:27:49;4.80;99.90
13880;DHT22;7010;48.200;16.332;2022-12-07T04:30:17;4.70;99.90
13880;DHT22;7010;48.200;16.332;2022-12-07T04:32:46;4.80;99.90
13880;DHT22;7010;48.200;16.332;2022-12-07T04:35:14;4.80;99.90
13880;DHT22;7010;48.200;16.332;2022-12-07T04:37:44;4.80;99.90
13880;DHT22;7010;48.200;16.332;2022-12-07T04:40:12;4.80;99.90
13880;DHT22;7010;48.200;16.332;2022-12-07T04:42:41;4.80;99.90
13880;DHT22;7010;48.200;16.332;2022-12-07T04:45:09;4.80;99.90
13880;DHT22;7010;48.200;16.332;2022-12-07T04:47:38;4.70;99.90
13880;DHT22;7010;48.200;16.332;2022-12-07T04:50:07;4.80;99.90
13880;DHT22;7010;48.200;16.332;2022-12-07T04:52:35;4.80;99.90
13880;DHT22;7010;48.200;16.332;2022-12-07T04:55:06;4.80;99.90
13880;DHT22;7010;48.200;16.332;2022-12-07T04:57:34;4.80;99.90
13880;DHT22;7010;48.200;16.332;2022-12-07T05:00:03;4.80;99.90
13880;DHT22;7010;48.200;16.332;2022-12-07T05:02:31;4.80;99.90
13880;DHT22;7010;48.200;16.332;2022-12-07T05:05:00;4.80;99.90
13880;DHT22;7010;48.200;16.332;2022-12-07T05:07:28;4.80;99.90
13880;DHT22;7010;48.200;16.332;2022-12-07T05:09:56;4.80;99.90
13880;DHT22;7010;48.200;16.332;2022-12-07T05:12:27;4.80;99.90
13880;DHT22;7010;48.200;16.332;2022-12-07T05:14:55;4.80;99.90
13880;DHT22;7010;48.200;16.332;2022-12-07T05:17:23;4.80;99.90
13880;DHT22;7010;48.200;16.332;2022-12-07T05:19:51;4.80;99.90
13880;DHT22;7010;48.200;16.332;2022-12-07T05:22:20;4.80;99.90
13880;DHT22;7010;48.200;16.332;2022-12-07T05:24:48;4.90;99.90
13880;DHT22;7010;48.200;16.332;2022-12-07T05:27:16;4.80;99.90
13880;DHT22;7010;48.200;16.332;2022-12-07T05:29:46;4.80;99.90
13880;DHT22;7010;48.200;16.332;2022-12-07T05:32:14;4.90;99.90
13880;DHT22;7010;48.200;16.332;2022-12-07T05:34:43;4.90;99.90
13880;DHT22;7010;48.200;16.332;2022-12-07T05:37:11;4.90;99.90
13880;DHT22;7010;48.200;16.332;2022-12-07T05:39:39;4.90;99.90
13880;DHT22;7010;48.200;16.332;2022-12-07T05:42:10;4.90;99.90
13880;DHT22;7010;48.200;16.332;2022-12-07T05:44:43;4.90;99.90
13880;DHT22;7010;48.200;16.332;2022-12-07T05:47:13;4.90;99.90
13880;DHT22;7010;48.200;16.332;2022-12-07T05:49:42;4.90;99.90
13880;DHT22;7010;48.200;16.332;2022-12-07T05:52:11;4.90;99.90
13880;DHT22;7010;48.200;16.332;2022-12-07T05:54:39;4.90;99.90
13880;DHT22;7010;48.200;16.332;2022-12-07T05:57:07;4.90;99.90
13880;DHT22;7010;48.200;16.332;2022-12-07T05:59:35;4.90;99.90
13880;DHT22;7010;48.200;16.332;2022-12-07T06:02:05;4.90;99.90
13880;DHT22;7010;48.200;16.332;2022-12-07T06:04:37;4.90;99.90
13880;DHT22;7010;48.200;16.332;2022-12-07T06:07:06;4.90;99.90
13880;DHT22;7010;48.200;16.332;2022-12-07T06:09:35;4.90;99.90
13880;DHT22;7010;48.200;16.332;2022-12-07T06:12:05;4.90;99.90
13880;DHT22;7010;48.200;16.332;2022-12-07T06:14:51;4.90;99.90
13880;DHT22;7010;48.200;16.332;2022-12-07T06:17:19;4.90;99.90
13880;DHT22;7010;48.200;16.332;2022-12-07T06:19:49;4.90;99.90
13880;DHT22;7010;48.200;16.332;2022-12-07T06:22:17;5.00;99.90
13880;DHT22;7010;48.200;16.332;2022-12-07T06:24:46;4.90;99.90
13880;DHT22;7010;48.200;16.332;2022-12-07T06:27:14;5.00;99.90
13880;DHT22;7010;48.200;16.332;2022-12-07T06:29:42;5.00;99.90
13880;DHT22;7010;48.200;16.332;2022-12-07T06:32:11;5.00;99.90
13880;DHT22;7010;48.200;16.332;2022-12-07T06:34:39;5.00;99.90
13880;DHT22;7010;48.200;16.332;2022-12-07T06:37:12;5.00;99.90
13880;DHT22;7010;48.200;16.332;2022-12-07T06:39:40;4.90;99.90
13880;DHT22;7010;48.200;16.332;2022-12-07T06:42:08;5.00;99.90
13880;DHT22;7010;48.200;16.332;2022-12-07T06:44:36;5.00;99.90
13880;DHT22;7010;48.200;16.332;2022-12-07T06:47:05;4.90;99.90
13880;DHT22;7010;48.200;16.332;2022-12-07T06:49:54;5.00;99.90
13880;DHT22;7010;48.200;16.332;2022-12-07T06:52:24;5.00;99.90
13880;DHT22;7010;48.200;16.332;2022-12-07T06:54:52;5.00;99.90
13880;DHT22;7010;48.200;16.332;2022-12-07T06:57:21;5.00;99.90
13880;DHT22;7010;48.200;16.332;2022-12-07T06:59:50;5.00;99.90
13880;DHT22;7010;48.200;16.332;2022-12-07T07:02:19;5.00;99.90
13880;DHT22;7010;48.200;16.332;2022-12-07T07:04:47;5.00;99.90
13880;DHT22;7010;48.200;16.332;2022-12-07T07:07:15;5.00;99.90
13880;DHT22;7010;48.200;16.332;2022-12-07T07:09:45;5.00;99.90
13880;DHT22;7010;48.200;16.332;2022-12-07T07:12:13;5.00;99.90
13880;DHT22;7010;48.200;16.332;2022-12-07T07:14:41;5.00;99.90
13880;DHT22;7010;48.200;16.332;2022-12-07T07:17:10;5.10;99.90
13880;DHT22;7010;48.200;16.332;2022-12-07T07:19:38;5.00;99.90
13880;DHT22;7010;48.200;16.332;2022-12-07T07:22:07;5.00;99.90
13880;DHT22;7010;48.200;16.332;2022-12-07T07:24:36;5.10;99.90
13880;DHT22;7010;48.200;16.332;2022-12-07T07:27:05;5.10;99.90
13880;DHT22;7010;48.200;16.332;2022-12-07T07:29:34;5.10;99.90
13880;DHT22;7010;48.200;16.332;2022-12-07T07:32:02;5.10;99.90
13880;DHT22;7010;48.200;16.332;2022-12-07T07:34:32;5.10;99.90
13880;DHT22;7010;48.200;16.332;2022-12-07T07:37:01;5.10;99.90
13880;DHT22;7010;48.200;16.332;2022-12-07T07:39:29;5.10;99.90
13880;DHT22;7010;48.200;16.332;2022-12-07T07:41:57;5.10;99.90
13880;DHT22;7010;48.200;16.332;2022-12-07T07:44:27;5.10;99.90
13880;DHT22;7010;48.200;16.332;2022-12-07T07:47:00;5.10;99.90
13880;DHT22;7010;48.200;16.332;2022-12-07T07:49:29;5.10;99.90
13880;DHT22;7010;48.200;16.332;2022-12-07T07:51:57;5.20;99.90
13880;DHT22;7010;48.200;16.332;2022-12-07T07:54:25;5.20;99.90
13880;DHT22;7010;48.200;16.332;2022-12-07T07:56:53;5.10;99.90
13880;DHT22;7010;48.200;16.332;2022-12-07T07:59:22;5.20;99.90
13880;DHT22;7010;48.200;16.332;2022-12-07T08:01:53;5.20;99.90
13880;DHT22;7010;48.200;16.332;2022-12-07T08:04:21;5.20;99.90
13880;DHT22;7010;48.200;16.332;2022-12-07T08:06:50;5.20;99.90
13880;DHT22;7010;48.200;16.332;2022-12-07T08:09:18;5.10;99.90
13880;DHT22;7010;48.200;16.332;2022-12-07T08:11:47;5.10;99.90
13880;DHT22;7010;48.200;16.332;2022-12-07T08:14:15;5.10;99.90
13880;DHT22;7010;48.200;16.332;2022-12-07T08:16:43;5.10;99.90
13880;DHT22;7010;48.200;16.332;2022-12-07T08:19:13;5.10;99.90
13880;DHT22;7010;48.200;16.332;2022-12-07T08:21:41;5.20;99.90
13880;DHT22;7010;48.200;16.332;2022-12-07T08:24:10;5.20;99.90
13880;DHT22;7010;48.200;16.332;2022-12-07T08:26:38;5.20;99.90
13880;DHT22;7010;48.200;16.332;2022-12-07T08:29:06;5.30;99.90
13880;DHT22;7010;48.200;16.332;2022-12-07T08:31:35;5.30;99.90
13880;DHT22;7010;48.200;16.332;2022-12-07T08:34:03;5.30;99.90
13880;DHT22;7010;48.200;16.332;2022-12-07T08:36:33;5.30;99.90
13880;DHT22;7010;48.200;16.332;2022-12-07T08:39:02;5.30;99.90
13880;DHT22;7010;48.200;16.332;2022-12-07T08:41:50;5.40;99.90
13880;DHT22;7010;48.200;16.332;2022-12-07T08:44:18;5.50;99.90
13880;DHT22;7010;48.200;16.332;2022-12-07T08:46:49;5.50;99.90
13880;DHT22;7010;48.200;16.332;2022-12-07T08:49:23;5.50;99.90
13880;DHT22;7010;48.200;16.332;2022-12-07T08:51:54;5.40;99.90
13880;DHT22;7010;48.200;16.332;2022-12-07T08:54:23;5.40;99.90
13880;DHT22;7010;48.200;16.332;2022-12-07T08:56:51;5.40;99.90
13880;DHT22;7010;48.200;16.332;2022-12-07T08:59:26;5.40;99.90
13880;DHT22;7010;48.200;16.332;2022-12-07T09:01:55;5.40;99.90
13880;DHT22;7010;48.200;16.332;2022-12-07T09:04:24;5.40;99.90
13880;DHT22;7010;48.200;16.332;2022-12-07T09:06:55;5.50;99.90
13880;DHT22;7010;48.200;16.332;2022-12-07T09:09:23;5.50;99.90
13880;DHT22;7010;48.200;16.332;2022-12-07T09:11:52;5.60;99.90
13880;DHT22;7010;48.200;16.332;2022-12-07T09:14:20;5.50;99.90
13880;DHT22;7010;48.200;16.332;2022-12-07T09:16:48;5.50;99.90
13880;DHT22;7010;48.200;16.332;2022-12-07T09:19:17;5.50;99.90
13880;DHT22;7010;48.200;16.332;2022-12-07T09:21:45;5.50;99.90
13880;DHT22;7010;48.200;16.332;2022-12-07T09:24:15;5.50;99.90
13880;DHT22;7010;48.200;16.332;2022-12-07T09:26:43;5.40;99.90
13880;DHT22;7010;48.200;16.332;2022-12-07T09:29:11;5.30;99.90
13880;DHT22;7010;48.200;16.332;2022-12-07T09:31:40;5.30;99.90
13880;DHT22;7010;48.200;16.332;2022-12-07T09:34:09;5.30;99.90
13880;DHT22;7010;48.200;16.332;2022-12-07T09:36:37;5.30;99.90
13880;DHT22;7010;48.200;16.332;2022-12-07T09:39:06;5.30;99.90
13880;DHT22;7010;48.200;16.332;2022-12-07T09:41:37;5.30;99.90
13880;DHT22;7010;48.200;16.332;2022-12-07T09:44:09;5.40;99.90
13880;DHT22;7010;48.200;16.332;2022-12-07T09:46:41;5.50;99.90
13880;DHT22;7010;48.200;16.332;2022-12-07T09:49:12;5.50;99.90
13880;DHT22;7010;48.200;16.332;2022-12-07T09:51:41;5.60;99.90
13880;DHT22;7010;48.200;16.332;2022-12-07T09:54:13;5.50;99.90
13880;DHT22;7010;48.200;16.332;2022-12-07T09:56:43;5.50;99.90
13880;DHT22;7010;48.200;16.332;2022-12-07T09:59:15;5.50;99.90
13880;DHT22;7010;48.200;16.332;2022-12-07T10:01:46;5.60;99.90
13880;DHT22;7010;48.200;16.332;2022-12-07T10:04:17;5.80;99.90
13880;DHT22;7010;48.200;16.332;2022-12-07T10:06:46;5.90;99.90
13880;DHT22;7010;48.200;16.332;2022-12-07T10:09:17;6.00;99.90
13880;DHT22;7010;48.200;16.332;2022-12-07T10:12:00;6.20;99.90
13880;DHT22;7010;48.200;16.332;2022-12-07T10:14:30;6.40;99.90
13880;DHT22;7010;48.200;16.332;2022-12-07T10:17:39;6.70;99.90
13880;DHT22;7010;48.200;16.332;2022-12-07T10:20:14;7.20;99.90
13880;DHT22;7010;48.200;16.332;2022-12-07T10:22:55;7.50;99.90
13880;DHT22;7010;48.200;16.332;2022-12-07T10:25:27;7.80;99.90
13880;DHT22;7010;48.200;16.332;2022-12-07T10:28:12;8.30;99.90
13880;DHT22;7010;48.200;16.332;2022-12-07T10:30:53;8.70;99.90
13880;DHT22;7010;48.200;16.332;2022-12-07T10:33:32;9.00;99.90
13880;DHT22;7010;48.200;16.332;2022-12-07T10:36:09;8.70;99.90
13880;DHT22;7010;48.200;16.332;2022-12-07T10:38:45;9.00;99.90
13880;DHT22;7010;48.200;16.332;2022-12-07T10:41:14;9.00;99.90
13880;DHT22;7010;48.200;16.332;2022-12-07T10:43:52;8.80;99.90
13880;DHT22;7010;48.200;16.332;2022-12-07T10:46:46;8.20;99.90
13880;DHT22;7010;48.200;16.332;2022-12-07T10:49:49;7.60;99.90
13880;DHT22;7010;48.200;16.332;2022-12-07T10:52:37;6.90;99.90
13880;DHT22;7010;48.200;16.332;2022-12-07T10:55:19;6.70;99.90
13880;DHT22;7010;48.200;16.332;2022-12-07T10:58:00;6.40;99.90
13880;DHT22;7010;48.200;16.332;2022-12-07T11:00:37;6.30;99.90
13880;DHT22;7010;48.200;16.332;2022-12-07T11:06:16;6.20;99.90
13880;DHT22;7010;48.200;16.332;2022-12-07T11:11:45;6.10;99.90
13880;DHT22;7010;48.200;16.332;2022-12-07T11:14:18;6.10;99.90
13880;DHT22;7010;48.200;16.332;2022-12-07T11:16:56;6.10;99.90
13880;DHT22;7010;48.200;16.332;2022-12-07T11:19:34;6.10;99.90
13880;DHT22;7010;48.200;16.332;2022-12-07T11:22:14;6.10;99.90
13880;DHT22;7010;48.200;16.332;2022-12-07T11:24:49;6.10;99.90
13880;DHT22;7010;48.200;16.332;2022-12-07T11:27:28;6.30;99.90
13880;DHT22;7010;48.200;16.332;2022-12-07T11:30:08;6.40;99.90
13880;DHT22;7010;48.200;16.332;2022-12-07T11:32:47;6.40;99.90
13880;DHT22;7010;48.200;16.332;2022-12-07T11:35:22;6.40;99.90
13880;DHT22;7010;48.200;16.332;2022-12-07T11:37:56;6.30;99.90
13880;DHT22;7010;48.200;16.332;2022-12-07T11:40:28;6.20;99.90
13880;DHT22;7010;48.200;16.332;2022-12-07T11:43:01;6.20;99.90
13880;DHT22;7010;48.200;16.332;2022-12-07T11:45:32;6.10;99.90
13880;DHT22;7010;48.200;16.332;2022-12-07T11:48:05;6.00;99.90
13880;DHT22;7010;48.200;16.332;2022-12-07T11:50:40;5.90;99.90
13880;DHT22;7010;48.200;16.332;2022-12-07T11:53:15;5.90;99.90
13880;DHT22;7010;48.200;16.332;2022-12-07T11:55:49;5.90;99.90
13880;DHT22;7010;48.200;16.332;2022-12-07T11:58:39;6.40;99.90
13880;DHT22;7010;48.200;16.332;2022-12-07T12:01:15;6.90;99.90
13880;DHT22;7010;48.200;16.332;2022-12-07T12:03:51;7.30;99.90
13880;DHT22;7010;48.200;16.332;2022-12-07T12:06:21;7.80;99.90
13880;DHT22;7010;48.200;16.332;2022-12-07T12:08:53;8.40;99.90
13880;DHT22;7010;48.200;16.332;2022-12-07T12:12:04;8.70;99.90
13880;DHT22;7010;48.200;16.332;2022-12-07T12:15:06;8.80;99.90
13880;DHT22;7010;48.200;16.332;2022-12-07T12:18:15;9.30;99.90
13880;DHT22;7010;48.200;16.332;2022-12-07T12:20:50;9.30;99.90
13880;DHT22;7010;48.200;16.332;2022-12-07T12:23:21;9.60;99.90
13880;DHT22;7010;48.200;16.332;2022-12-07T12:25:53;9.60;99.90
13880;DHT22;7010;48.200;16.332;2022-12-07T12:28:27;9.50;99.90
13880;DHT22;7010;48.200;16.332;2022-12-07T12:31:11;9.60;99.90
13880;DHT22;7010;48.200;16.332;2022-12-07T12:33:43;9.70;99.90
13880;DHT22;7010;48.200;16.332;2022-12-07T12:36:21;9.90;99.90
13880;DHT22;7010;48.200;16.332;2022-12-07T12:38:52;9.90;99.90
13880;DHT22;7010;48.200;16.332;2022-12-07T12:41:53;10.10;99.90
13880;DHT22;7010;48.200;16.332;2022-12-07T12:44:41;10.20;99.90
13880;DHT22;7010;48.200;16.332;2022-12-07T12:47:42;10.10;99.90
13880;DHT22;7010;48.200;16.332;2022-12-07T12:50:18;9.80;99.90
13880;DHT22;7010;48.200;16.332;2022-12-07T12:53:00;9.80;99.90
13880;DHT22;7010;48.200;16.332;2022-12-07T12:55:58;9.70;99.90
13880;DHT22;7010;48.200;16.332;2022-12-07T12:58:36;9.30;99.90
13880;DHT22;7010;48.200;16.332;2022-12-07T13:04:29;9.10;99.90
13880;DHT22;7010;48.200;16.332;2022-12-07T13:06:59;9.10;99.90
13880;DHT22;7010;48.200;16.332;2022-12-07T13:09:31;9.10;99.90
13880;DHT22;7010;48.200;16.332;2022-12-07T13:12:03;9.30;99.90
13880;DHT22;7010;48.200;16.332;2022-12-07T13:14:58;9.30;99.90
13880;DHT22;7010;48.200;16.332;2022-12-07T13:18:01;9.00;99.90
13880;DHT22;7010;48.200;16.332;2022-12-07T13:20:53;8.60;99.90
13880;DHT22;7010;48.200;16.332;2022-12-07T13:23:28;8.70;99.90
13880;DHT22;7010;48.200;16.332;2022-12-07T13:26:17;8.70;99.90
13880;DHT22;7010;48.200;16.332;2022-12-07T13:28:47;8.70;99.90
13880;DHT22;7010;48.200;16.332;2022-12-07T13:31:25;8.30;99.90
13880;DHT22;7010;48.200;16.332;2022-12-07T13:33:59;8.00;99.90
13880;DHT22;7010;48.200;16.332;2022-12-07T13:36:30;7.80;99.90
13880;DHT22;7010;48.200;16.332;2022-12-07T13:39:18;7.70;99.90
13880;DHT22;7010;48.200;16.332;2022-12-07T13:41:52;7.60;99.90
13880;DHT22;7010;48.200;16.332;2022-12-07T13:44:21;7.60;99.90
13880;DHT22;7010;48.200;16.332;2022-12-07T13:46:55;7.50;99.90
13880;DHT22;7010;48.200;16.332;2022-12-07T13:49:27;7.30;99.90
13880;DHT22;7010;48.200;16.332;2022-12-07T13:52:13;7.10;99.90
13880;DHT22;7010;48.200;16.332;2022-12-07T13:54:47;6.90;99.90
13880;DHT22;7010;48.200;16.332;2022-12-07T13:57:18;6.90;99.90
13880;DHT22;7010;48.200;16.332;2022-12-07T13:59:47;6.90;99.90
13880;DHT22;7010;48.200;16.332;2022-12-07T14:02:20;6.80;99.90
13880;DHT22;7010;48.200;16.332;2022-12-07T14:04:49;6.70;99.90
13880;DHT22;7010;48.200;16.332;2022-12-07T14:07:21;6.70;99.90
13880;DHT22;7010;48.200;16.332;2022-12-07T14:09:55;6.60;99.90
13880;DHT22;7010;48.200;16.332;2022-12-07T14:12:26;6.50;99.90
13880;DHT22;7010;48.200;16.332;2022-12-07T14:14:56;6.40;99.90
13880;DHT22;7010;48.200;16.332;2022-12-07T14:17:26;6.30;99.90
13880;DHT22;7010;48.200;16.332;2022-12-07T14:19:55;6.30;99.90
13880;DHT22;7010;48.200;16.332;2022-12-07T14:22:29;6.10;99.90
13880;DHT22;7010;48.200;16.332;2022-12-07T14:25:20;6.00;99.90
13880;DHT22;7010;48.200;16.332;2022-12-07T14:27:58;6.00;99.90
13880;DHT22;7010;48.200;16.332;2022-12-07T14:30:28;5.90;99.90
13880;DHT22;7010;48.200;16.332;2022-12-07T14:32:59;5.80;99.90
13880;DHT22;7010;48.200;16.332;2022-12-07T14:35:29;5.80;99.90
13880;DHT22;7010;48.200;16.332;2022-12-07T14:37:57;5.70;99.90
13880;DHT22;7010;48.200;16.332;2022-12-07T14:40:27;5.70;99.90
13880;DHT22;7010;48.200;16.332;2022-12-07T14:43:02;5.60;99.90
13880;DHT22;7010;48.200;16.332;2022-12-07T14:45:31;5.60;99.90
13880;DHT22;7010;48.200;16.332;2022-12-07T14:47:59;5.50;99.90
13880;DHT22;7010;48.200;16.332;2022-12-07T14:50:50;5.50;99.90
13880;DHT22;7010;48.200;16.332;2022-12-07T14:53:41;5.50;99.90
13880;DHT22;7010;48.200;16.332;2022-12-07T14:56:14;5.50;99.90
13880;DHT22;7010;48.200;16.332;2022-12-07T14:58:44;5.40;99.90
13880;DHT22;7010;48.200;16.332;2022-12-07T15:01:15;5.30;99.90
13880;DHT22;7010;48.200;16.332;2022-12-07T15:03:43;5.40;99.90
13880;DHT22;7010;48.200;16.332;2022-12-07T15:06:15;5.40;99.90
13880;DHT22;7010;48.200;16.332;2022-12-07T15:08:44;5.40;99.90
13880;DHT22;7010;48.200;16.332;2022-12-07T15:11:13;5.40;99.90
13880;DHT22;7010;48.200;16.332;2022-12-07T15:13:43;5.30;99.90
13880;DHT22;7010;48.200;16.332;2022-12-07T15:16:39;5.40;99.90
13880;DHT22;7010;48.200;16.332;2022-12-07T15:19:28;5.40;99.90
13880;DHT22;7010;48.200;16.332;2022-12-07T15:21:57;5.40;99.90
13880;DHT22;7010;48.200;16.332;2022-12-07T15:24:26;5.40;99.90
13880;DHT22;7010;48.200;16.332;2022-12-07T15:26:55;5.30;99.90
13880;DHT22;7010;48.200;16.332;2022-12-07T15:29:25;5.30;99.90
13880;DHT22;7010;48.200;16.332;2022-12-07T15:31:54;5.30;99.90
13880;DHT22;7010;48.200;16.332;2022-12-07T15:34:25;5.30;99.90
13880;DHT22;7010;48.200;16.332;2022-12-07T15:37:05;5.30;99.90
13880;DHT22;7010;48.200;16.332;2022-12-07T15:39:33;5.30;99.90
13880;DHT22;7010;48.200;16.332;2022-12-07T15:42:02;5.30;99.90
13880;DHT22;7010;48.200;16.332;2022-12-07T15:44:31;5.30;99.90
13880;DHT22;7010;48.200;16.332;2022-12-07T15:47:17;5.20;99.90
13880;DHT22;7010;48.200;16.332;2022-12-07T15:49:46;5.30;99.90
13880;DHT22;7010;48.200;16.332;2022-12-07T15:52:14;5.20;99.90
13880;DHT22;7010;48.200;16.332;2022-12-07T15:54:42;5.30;99.90
13880;DHT22;7010;48.200;16.332;2022-12-07T15:57:11;5.20;99.90
13880;DHT22;7010;48.200;16.332;2022-12-07T15:59:40;5.20;99.90
13880;DHT22;7010;48.200;16.332;2022-12-07T16:02:09;5.20;99.90
13880;DHT22;7010;48.200;16.332;2022-12-07T16:04:38;5.20;99.90
13880;DHT22;7010;48.200;16.332;2022-12-07T16:07:06;5.10;99.90
13880;DHT22;7010;48.200;16.332;2022-12-07T16:09:34;5.00;99.90
13880;DHT22;7010;48.200;16.332;2022-12-07T16:12:03;5.00;99.90
13880;DHT22;7010;48.200;16.332;2022-12-07T16:14:31;5.00;99.90
13880;DHT22;7010;48.200;16.332;2022-12-07T16:17:01;4.90;99.90
13880;DHT22;7010;48.200;16.332;2022-12-07T16:19:31;4.90;99.90
13880;DHT22;7010;48.200;16.332;2022-12-07T16:22:00;4.90;99.90
13880;DHT22;7010;48.200;16.332;2022-12-07T16:24:29;4.80;99.90
13880;DHT22;7010;48.200;16.332;2022-12-07T16:26:57;4.80;99.90
13880;DHT22;7010;48.200;16.332;2022-12-07T16:29:26;4.70;99.90
13880;DHT22;7010;48.200;16.332;2022-12-07T16:31:54;4.70;99.90